createdAt,value
2019-05-10T00:00:28.974Z,16.97
2019-05-10T00:03:16.846Z,11.87
2019-05-10T00:06:04.533Z,11.07
2019-05-10T00:08:45.936Z,13.73
2019-05-10T00:11:31.311Z,13.77
2019-05-10T00:14:34.482Z,15.33
2019-05-10T00:17:11.462Z,17.37
2019-05-10T00:19:41.659Z,9.70
2019-05-10T00:22:12.429Z,15.60
2019-05-10T00:24:43.773Z,11.60
2019-05-10T00:27:14.035Z,11.07
2019-05-10T00:29:45.011Z,16.33
2019-05-10T00:32:15.239Z,15.03
2019-05-10T00:34:45.431Z,13.23
2019-05-10T00:37:15.690Z,13.83
2019-05-10T00:39:46.027Z,16.03
2019-05-10T00:42:17.559Z,16.10
2019-05-10T00:44:47.696Z,19.87
2019-05-10T00:47:18.198Z,16.20
2019-05-10T00:49:48.335Z,14.30
2019-05-10T00:52:18.563Z,18.70
2019-05-10T00:54:48.769Z,24.27
2019-05-10T00:57:19.174Z,16.93
2019-05-10T00:59:49.336Z,26.00
2019-05-10T01:02:19.730Z,18.90
2019-05-10T01:04:49.982Z,18.13
2019-05-10T01:07:20.241Z,20.20
2019-05-10T01:09:51.821Z,19.20
2019-05-10T01:12:22.377Z,17.27
2019-05-10T01:14:52.960Z,21.40
2019-05-10T01:17:23.212Z,17.20
2019-05-10T01:19:53.494Z,17.93
2019-05-10T01:22:23.668Z,15.17
2019-05-10T01:24:53.823Z,17.10
2019-05-10T01:27:24.364Z,15.80
2019-05-10T01:29:54.873Z,37.33
2019-05-10T01:32:25.147Z,18.53
2019-05-10T01:34:55.328Z,19.67
2019-05-10T01:37:25.517Z,24.20
2019-05-10T01:39:57.744Z,21.27
2019-05-10T01:42:28.371Z,15.87
2019-05-10T01:44:59.080Z,18.57
2019-05-10T01:47:29.266Z,12.93
2019-05-10T01:50:00.121Z,11.10
2019-05-10T01:52:30.346Z,12.17
2019-05-10T01:55:00.466Z,17.97
2019-05-10T01:57:30.662Z,23.07
2019-05-10T02:00:00.827Z,18.67
2019-05-10T02:02:32.255Z,12.70
2019-05-10T02:05:02.794Z,18.27
2019-05-10T02:07:32.970Z,25.20
2019-05-10T02:10:03.186Z,18.33
2019-05-10T02:12:33.346Z,18.20
2019-05-10T02:15:04.052Z,19.87
2019-05-10T02:17:34.238Z,18.90
2019-05-10T02:20:05.082Z,19.30
2019-05-10T02:22:35.214Z,17.40
2019-05-10T02:25:07.349Z,23.73
2019-05-10T02:27:37.605Z,18.50
2019-05-10T02:30:08.350Z,22.47
2019-05-10T02:32:39.036Z,15.33
2019-05-10T02:35:09.787Z,25.70
2019-05-10T02:37:40.068Z,19.10
2019-05-10T02:40:10.695Z,17.87
2019-05-10T02:42:41.430Z,16.13
2019-05-10T02:45:12.020Z,22.80
2019-05-10T02:47:42.275Z,22.40
2019-05-10T02:50:12.649Z,24.23
2019-05-10T02:52:43.506Z,17.90
2019-05-10T02:55:13.784Z,22.43
2019-05-10T02:57:44.926Z,23.53
2019-05-10T03:00:15.818Z,21.40
2019-05-10T03:02:46.385Z,22.07
2019-05-10T03:05:16.806Z,18.70
2019-05-10T03:07:48.443Z,25.83
2019-05-10T03:10:18.885Z,19.07
2019-05-10T03:12:51.171Z,20.00
2019-05-10T03:15:21.307Z,19.30
2019-05-10T03:17:53.244Z,22.40
2019-05-10T03:20:24.518Z,28.67
2019-05-10T03:22:55.484Z,22.80
2019-05-10T03:25:26.050Z,21.13
2019-05-10T03:27:56.498Z,20.03
2019-05-10T03:30:26.799Z,20.97
2019-05-10T03:32:57.536Z,17.87
2019-05-10T03:35:27.745Z,17.90
2019-05-10T03:37:58.329Z,16.57
2019-05-10T03:40:28.685Z,22.37
2019-05-10T03:42:59.023Z,22.00
2019-05-10T03:45:29.140Z,32.30
2019-05-10T03:47:59.418Z,23.03
2019-05-10T03:50:29.803Z,22.80
2019-05-10T03:53:00.646Z,17.13
2019-05-10T03:55:30.873Z,19.80
2019-05-10T03:58:01.079Z,22.63
2019-05-10T04:00:31.255Z,29.10
2019-05-10T04:03:01.525Z,22.60
2019-05-10T04:05:31.780Z,24.67
2019-05-10T04:08:03.412Z,25.77
2019-05-10T04:10:33.639Z,21.00
2019-05-10T04:13:04.341Z,25.00
2019-05-10T04:15:34.504Z,19.37
2019-05-10T04:18:05.101Z,25.80
2019-05-10T04:20:35.336Z,24.40
2019-05-10T04:23:05.484Z,22.40
2019-05-10T04:25:35.737Z,20.83
2019-05-10T04:28:05.991Z,26.57
2019-05-10T04:30:36.139Z,18.73
2019-05-10T04:33:06.615Z,27.90
2019-05-10T04:35:36.821Z,21.23
2019-05-10T04:38:07.087Z,19.67
2019-05-10T04:40:37.312Z,20.90
2019-05-10T04:43:07.838Z,17.30
2019-05-10T04:45:37.986Z,23.50
2019-05-10T04:48:08.178Z,21.70
2019-05-10T04:50:38.438Z,21.10
2019-05-10T04:53:08.744Z,22.00
2019-05-10T04:55:38.964Z,24.07
2019-05-10T04:58:09.219Z,21.03
2019-05-10T05:00:39.360Z,23.90
2019-05-10T05:03:09.856Z,26.37
2019-05-10T05:05:40.817Z,25.10
2019-05-10T05:08:11.466Z,25.27
2019-05-10T05:10:41.632Z,26.07
2019-05-10T05:13:12.057Z,26.43
2019-05-10T05:15:42.856Z,26.40
2019-05-10T05:18:14.148Z,21.97
2019-05-10T05:20:44.353Z,33.80
2019-05-10T05:23:14.852Z,27.83
2019-05-10T05:25:45.601Z,27.30
2019-05-10T05:28:18.474Z,26.70
2019-05-10T05:30:48.653Z,31.40
2019-05-10T05:33:19.124Z,29.57
2019-05-10T05:35:49.365Z,30.07
2019-05-10T05:38:20.625Z,29.30
2019-05-10T05:40:51.009Z,31.67
2019-05-10T05:43:21.239Z,37.93
2019-05-10T05:45:51.543Z,31.27
2019-05-10T05:48:23.108Z,28.93
2019-05-10T05:50:53.614Z,36.03
2019-05-10T05:53:24.556Z,27.10
2019-05-10T05:55:54.790Z,27.13
2019-05-10T05:58:27.075Z,30.13
2019-05-10T06:00:57.157Z,29.30
2019-05-10T06:03:29.217Z,26.87
2019-05-10T06:05:59.573Z,25.17
2019-05-10T06:08:30.370Z,25.17
2019-05-10T06:11:01.009Z,22.30
2019-05-10T06:13:32.530Z,20.20
2019-05-10T06:16:06.292Z,19.43
2019-05-10T06:18:35.087Z,15.90
2019-05-10T06:21:05.593Z,17.17
2019-05-10T06:23:36.919Z,16.63
2019-05-10T06:26:21.037Z,17.37
2019-05-10T06:29:04.697Z,19.63
2019-05-10T06:31:17.818Z,17.33
2019-05-10T06:33:48.058Z,21.00
2019-05-10T06:36:18.216Z,19.77
2019-05-10T06:38:48.604Z,18.33
2019-05-10T06:41:19.343Z,14.77
2019-05-10T06:43:51.519Z,11.73
2019-05-10T06:46:23.577Z,10.97
2019-05-10T06:48:55.371Z,9.47
2019-05-10T06:51:25.725Z,13.03
2019-05-10T06:53:56.453Z,13.83
2019-05-10T06:56:26.778Z,9.70
2019-05-10T06:59:11.981Z,7.90
2019-05-10T07:01:29.113Z,10.03
2019-05-10T07:03:59.537Z,10.37
2019-05-10T07:06:30.148Z,9.27
2019-05-10T07:09:00.899Z,11.63
2019-05-10T07:11:31.732Z,9.70
2019-05-10T07:14:02.798Z,10.33
2019-05-10T07:16:34.024Z,7.67
2019-05-10T07:19:04.854Z,11.20
2019-05-10T07:21:39.091Z,18.13
2019-05-10T07:24:07.610Z,11.23
2019-05-10T07:26:38.000Z,10.63
2019-05-10T07:29:08.661Z,16.37
2019-05-10T07:31:39.028Z,13.47
2019-05-10T07:34:09.847Z,11.57
2019-05-10T07:36:41.611Z,10.07
2019-05-10T07:39:12.283Z,13.63
2019-05-10T07:41:42.835Z,12.57
2019-05-10T07:44:13.627Z,11.97
2019-05-10T07:46:46.422Z,7.00
2019-05-10T07:49:18.234Z,10.23
2019-05-10T07:51:48.575Z,12.90
2019-05-10T07:54:18.985Z,9.03
2019-05-10T07:56:49.385Z,12.13
2019-05-10T07:59:22.009Z,12.50
2019-05-10T08:01:52.118Z,14.63
2019-05-10T08:04:29.010Z,9.13
2019-05-10T08:06:55.112Z,9.70
2019-05-10T08:09:31.538Z,12.33
2019-05-10T08:12:00.591Z,9.53
2019-05-10T08:14:30.015Z,8.27
2019-05-10T08:17:05.831Z,10.10
2019-05-10T08:19:32.795Z,9.60
2019-05-10T08:22:04.619Z,11.83
2019-05-10T08:24:35.535Z,10.77
2019-05-10T08:27:11.650Z,7.83
2019-05-10T08:29:37.989Z,9.90
2019-05-10T08:32:08.667Z,12.30
2019-05-10T08:34:46.607Z,8.80
2019-05-10T08:37:12.862Z,6.90
2019-05-10T08:39:48.018Z,8.47
2019-05-10T08:42:34.693Z,9.97
2019-05-10T08:44:53.700Z,11.03
2019-05-10T08:47:25.055Z,11.10
2019-05-10T08:50:09.610Z,13.10
2019-05-10T08:52:30.898Z,10.43
2019-05-10T08:54:56.751Z,11.17
2019-05-10T08:57:27.660Z,8.77
2019-05-10T09:00:12.747Z,13.13
2019-05-10T09:02:42.879Z,11.07
2019-05-10T09:05:13.623Z,11.60
2019-05-10T09:07:45.461Z,7.23
2019-05-10T09:10:16.725Z,10.03
2019-05-10T09:12:53.694Z,15.10
2019-05-10T09:15:19.551Z,10.00
2019-05-10T09:17:52.598Z,8.17
2019-05-10T09:20:26.305Z,7.13
2019-05-10T09:22:54.252Z,9.33
2019-05-10T09:25:29.532Z,5.73
2019-05-10T09:28:02.373Z,7.27
2019-05-10T09:30:35.366Z,6.03
2019-05-10T09:33:08.511Z,8.43
2019-05-10T09:35:39.022Z,5.13
2019-05-10T09:38:12.506Z,8.50
2019-05-10T09:40:51.050Z,6.20
2019-05-10T09:43:15.203Z,12.23
2019-05-10T09:45:46.149Z,11.47
2019-05-10T09:48:16.805Z,9.60
2019-05-10T09:50:47.468Z,6.90
2019-05-10T09:53:25.431Z,4.87
2019-05-10T09:55:55.106Z,7.37
2019-05-10T09:58:22.512Z,8.20
2019-05-10T10:01:09.485Z,11.37
2019-05-10T10:03:29.801Z,7.63
2019-05-10T10:06:05.523Z,5.83
2019-05-10T10:08:31.394Z,5.50
2019-05-10T10:11:11.547Z,8.73
2019-05-10T10:13:43.139Z,5.63
2019-05-10T10:16:12.655Z,5.80
2019-05-10T10:18:39.530Z,7.17
2019-05-10T10:21:11.027Z,5.27
2019-05-10T10:23:41.917Z,9.48
2019-05-10T10:26:17.330Z,10.88
2019-05-10T10:28:44.262Z,12.07
2019-05-10T10:31:26.257Z,10.63
2019-05-10T10:33:54.578Z,15.43
2019-05-10T10:36:18.874Z,14.00
2019-05-10T10:38:49.839Z,11.30
2019-05-10T10:41:25.940Z,12.13
2019-05-10T10:43:53.361Z,18.90
2019-05-10T10:46:28.090Z,12.20
2019-05-10T10:49:05.460Z,8.63
2019-05-10T10:51:34.606Z,8.77
2019-05-10T10:54:07.371Z,9.67
2019-05-10T10:56:38.805Z,7.40
2019-05-10T10:59:09.230Z,10.90
2019-05-10T11:01:49.449Z,10.07
2019-05-10T11:04:11.586Z,13.57
2019-05-10T11:06:42.095Z,7.57
2019-05-10T11:09:12.571Z,11.20
2019-05-10T11:11:44.822Z,7.63
2019-05-10T11:14:15.366Z,9.20
2019-05-10T11:16:46.677Z,8.63
2019-05-10T11:19:20.443Z,5.43
2019-05-10T11:21:51.435Z,6.57
2019-05-10T11:24:22.909Z,8.73
2019-05-10T11:26:54.263Z,11.60
2019-05-10T11:29:27.733Z,10.20
2019-05-10T11:32:12.225Z,11.20
2019-05-10T11:34:37.510Z,11.13
2019-05-10T11:37:02.063Z,15.43
2019-05-10T11:39:40.752Z,12.27
2019-05-10T11:42:07.193Z,16.52
2019-05-10T11:44:41.446Z,10.33
2019-05-10T11:47:23.443Z,20.07
2019-05-10T11:49:41.500Z,15.13
2019-05-10T11:52:13.205Z,19.20
2019-05-10T11:54:44.154Z,12.25
2019-05-10T11:57:14.888Z,17.23
2019-05-10T11:59:45.616Z,20.37
2019-05-10T12:02:37.010Z,15.90
2019-05-10T12:04:52.419Z,16.67
2019-05-10T12:07:26.018Z,18.65
2019-05-10T12:10:03.016Z,17.67
2019-05-10T12:12:44.877Z,18.43
2019-05-10T12:14:57.120Z,18.90
2019-05-10T12:17:27.516Z,17.20
2019-05-10T12:19:57.913Z,15.13
2019-05-10T12:25:23.332Z,18.27
2019-05-10T12:26:12.075Z,19.67
2019-05-10T12:27:43.972Z,23.57
2019-05-10T12:30:06.167Z,17.70
2019-05-10T12:32:42.061Z,13.93
2019-05-10T12:35:11.624Z,19.87
2019-05-10T12:37:46.291Z,21.42
2019-05-10T12:40:15.140Z,17.63
2019-05-10T12:42:47.145Z,18.43
2019-05-10T12:45:17.790Z,16.40
2019-05-10T12:47:51.429Z,17.23
2019-05-10T12:50:21.306Z,20.55
2019-05-10T12:53:03.257Z,17.77
2019-05-10T12:55:23.659Z,17.02
2019-05-10T12:57:55.462Z,19.12
2019-05-10T13:00:25.831Z,19.90
2019-05-10T13:03:11.684Z,21.03
2019-05-10T13:05:33.850Z,23.10
2019-05-10T13:08:04.212Z,15.13
2019-05-10T13:10:37.231Z,16.25
2019-05-10T13:13:06.917Z,13.00
2019-05-10T13:15:38.315Z,19.13
2019-05-10T13:18:08.742Z,20.05
2019-05-10T13:20:39.062Z,14.63
2019-05-10T13:23:09.853Z,17.93
2019-05-10T13:25:41.458Z,17.00
2019-05-10T13:28:12.013Z,15.08
2019-05-10T13:30:42.753Z,13.30
2019-05-10T13:33:27.971Z,13.32
2019-05-10T13:35:45.205Z,12.90
2019-05-10T13:38:15.922Z,16.27
2019-05-10T13:40:47.806Z,11.50
2019-05-10T13:43:26.515Z,10.63
2019-05-10T13:45:50.460Z,12.27
2019-05-10T13:48:25.562Z,11.53
2019-05-10T13:50:52.942Z,12.67
2019-05-10T13:53:23.365Z,13.28
2019-05-10T13:55:53.700Z,13.70
2019-05-10T13:58:24.137Z,8.90
2019-05-10T14:00:54.834Z,10.53
2019-05-10T14:03:25.230Z,9.63
2019-05-10T14:05:56.900Z,9.00
2019-05-10T14:08:27.698Z,11.37
2019-05-10T14:11:01.386Z,11.30
2019-05-10T14:13:35.728Z,15.93
2019-05-10T14:16:02.080Z,14.43
2019-05-10T14:18:32.747Z,15.65
2019-05-10T14:21:03.072Z,14.93
2019-05-10T14:23:35.565Z,13.08
2019-05-10T14:26:09.449Z,14.15
2019-05-10T14:28:53.095Z,13.90
2019-05-10T14:31:19.873Z,13.40
2019-05-10T14:34:14.087Z,19.80
2019-05-10T14:36:22.660Z,16.97
2019-05-10T14:38:54.149Z,14.83
2019-05-10T14:41:25.106Z,17.92
2019-05-10T14:43:55.849Z,18.95
2019-05-10T14:46:26.286Z,16.32
2019-05-10T14:48:56.751Z,21.07
2019-05-10T14:51:44.077Z,18.63
2019-05-10T14:54:06.614Z,17.82
2019-05-10T14:56:31.806Z,21.07
2019-05-10T14:59:02.300Z,19.82
2019-05-10T15:01:36.845Z,21.35
2019-05-10T15:04:05.088Z,18.90
2019-05-10T15:06:36.865Z,19.55
2019-05-10T15:09:20.454Z,16.27
2019-05-10T15:11:40.949Z,18.40
2019-05-10T15:14:11.386Z,15.30
2019-05-10T15:16:41.681Z,17.25
2019-05-10T15:19:12.297Z,15.23
2019-05-10T15:21:42.597Z,21.15
2019-05-10T15:24:12.960Z,16.85
2019-05-10T15:26:44.245Z,17.32
2019-05-10T15:29:22.063Z,18.25
2019-05-10T15:31:47.486Z,26.40
2019-05-10T15:34:17.829Z,19.48
2019-05-10T15:36:48.134Z,23.57
2019-05-10T15:39:22.897Z,20.97
2019-05-10T15:41:53.707Z,20.57
2019-05-10T15:44:31.469Z,18.48
2019-05-10T15:46:57.092Z,22.20
2019-05-10T15:49:27.609Z,21.45
2019-05-10T15:52:16.190Z,19.62
2019-05-10T15:54:30.358Z,20.90
2019-05-10T15:57:00.553Z,20.32
2019-05-10T15:59:30.795Z,21.23
2019-05-10T16:02:01.009Z,18.42
2019-05-10T16:04:31.343Z,19.83
2019-05-10T16:07:02.913Z,20.57
2019-05-10T16:09:33.123Z,17.60
2019-05-10T16:12:08.026Z,16.55
2019-05-10T16:14:39.214Z,19.35
2019-05-10T16:17:10.347Z,15.83
2019-05-10T16:19:39.700Z,17.70
2019-05-10T16:22:10.190Z,15.80
2019-05-10T16:24:40.467Z,17.07
2019-05-10T16:27:10.662Z,14.65
2019-05-10T16:29:41.390Z,18.45
2019-05-10T16:32:11.742Z,18.40
2019-05-10T16:34:42.024Z,16.50
2019-05-10T16:37:12.706Z,15.55
2019-05-10T16:39:43.007Z,14.70
2019-05-10T16:42:13.182Z,17.87
2019-05-10T16:44:43.788Z,14.45
2019-05-10T16:47:14.273Z,13.58
2019-05-10T16:49:53.460Z,13.93
2019-05-10T16:52:26.024Z,12.73
2019-05-10T16:54:58.112Z,12.03
2019-05-10T16:57:25.035Z,13.25
2019-05-10T16:59:55.370Z,12.43
2019-05-10T17:02:25.563Z,13.40
2019-05-10T17:04:55.854Z,11.45
2019-05-10T17:07:26.114Z,14.37
2019-05-10T17:09:56.375Z,12.18
2019-05-10T17:12:28.170Z,11.88
2019-05-10T17:15:02.786Z,12.57
2019-05-10T17:17:36.926Z,11.97
2019-05-10T17:20:07.529Z,12.28
2019-05-10T17:22:37.413Z,16.50
2019-05-10T17:25:08.197Z,19.73
2019-05-10T17:27:38.723Z,12.23
2019-05-10T17:30:10.230Z,11.53
2019-05-10T17:32:40.799Z,11.15
2019-05-10T17:35:11.541Z,11.53
2019-05-10T17:37:41.797Z,11.38
2019-05-10T17:40:12.626Z,10.70
2019-05-10T17:42:43.388Z,13.97
2019-05-10T17:45:14.632Z,13.50
2019-05-10T17:47:44.798Z,11.70
2019-05-10T17:50:19.072Z,9.83
2019-05-10T17:52:49.276Z,12.57
2019-05-10T17:55:19.743Z,10.73
2019-05-10T17:57:54.914Z,13.00
2019-05-10T18:00:22.685Z,8.87
2019-05-10T18:02:52.928Z,13.80
2019-05-10T18:05:24.375Z,14.55
2019-05-10T18:07:54.540Z,11.55
2019-05-10T18:10:24.854Z,10.38
2019-05-10T18:12:57.405Z,9.98
2019-05-10T18:15:27.808Z,10.13
2019-05-10T18:18:02.517Z,7.90
2019-05-10T18:20:40.799Z,9.10
2019-05-10T18:23:02.935Z,9.63
2019-05-10T18:25:33.460Z,13.93
2019-05-10T18:28:03.987Z,9.48
2019-05-10T18:30:34.651Z,10.03
2019-05-10T18:33:06.560Z,10.67
2019-05-10T18:35:37.056Z,9.58
2019-05-10T18:38:08.196Z,11.27
2019-05-10T18:40:38.768Z,9.50
2019-05-10T18:43:09.996Z,7.07
2019-05-10T18:45:40.277Z,10.47
2019-05-10T18:48:10.501Z,11.07
2019-05-10T18:50:59.840Z,8.00
2019-05-10T18:53:30.900Z,9.40
2019-05-10T18:56:01.589Z,19.03
2019-05-10T18:58:31.875Z,14.10
2019-05-10T19:01:02.530Z,15.90
2019-05-10T19:03:34.278Z,10.60
2019-05-10T19:06:10.955Z,10.27
2019-05-10T19:08:38.583Z,15.57
2019-05-10T19:11:09.057Z,13.37
2019-05-10T19:13:46.573Z,16.17
2019-05-10T19:16:12.278Z,18.60
2019-05-10T19:18:42.757Z,15.57
2019-05-10T19:21:13.899Z,14.90
2019-05-10T19:23:44.398Z,15.50
2019-05-10T19:26:17.507Z,14.90
2019-05-10T19:28:46.909Z,14.07
2019-05-10T19:31:17.892Z,13.83
2019-05-10T19:33:48.330Z,17.27
2019-05-10T19:36:18.777Z,20.70
2019-05-10T19:38:49.503Z,15.80
2019-05-10T19:41:25.079Z,16.23
2019-05-10T19:43:56.062Z,15.47
2019-05-10T19:46:24.791Z,12.37
2019-05-10T19:48:57.117Z,16.33
2019-05-10T19:51:27.549Z,16.00
2019-05-10T19:53:58.081Z,15.07
2019-05-10T19:56:30.109Z,13.83
2019-05-10T19:59:05.536Z,14.30
2019-05-10T20:01:33.905Z,18.37
2019-05-10T20:04:04.449Z,15.97
2019-05-10T20:06:36.774Z,15.77
2019-05-10T20:09:08.480Z,16.87
2019-05-10T20:11:38.991Z,16.60
2019-05-10T20:14:09.282Z,17.60
2019-05-10T20:16:52.156Z,17.00
2019-05-10T20:19:13.595Z,18.20
2019-05-10T20:21:44.388Z,15.93
2019-05-10T20:24:14.638Z,17.07
2019-05-10T20:26:45.020Z,18.67
2019-05-10T20:29:15.531Z,16.20
2019-05-10T20:31:45.926Z,17.07
2019-05-10T20:34:16.743Z,20.03
2019-05-10T20:36:47.265Z,19.53
2019-05-10T20:39:17.687Z,22.53
2019-05-10T20:41:48.300Z,20.17
2019-05-10T20:44:19.517Z,20.97
2019-05-10T20:46:50.280Z,16.87
2019-05-10T20:49:20.550Z,19.80
2019-05-10T20:51:50.818Z,22.00
2019-05-10T20:54:21.000Z,22.97
2019-05-10T20:56:51.776Z,22.53
2019-05-10T20:59:22.053Z,26.37
2019-05-10T21:01:52.560Z,19.50
2019-05-10T21:04:22.737Z,19.97
2019-05-10T21:06:53.307Z,18.50
2019-05-10T21:09:23.524Z,20.33
2019-05-10T21:11:53.727Z,20.50
2019-05-10T21:14:23.995Z,20.80
2019-05-10T21:16:54.287Z,21.47
2019-05-10T21:19:24.455Z,21.57
2019-05-10T21:21:54.826Z,21.80
2019-05-10T21:24:25.135Z,20.27
2019-05-10T21:26:55.400Z,24.63
2019-05-10T21:29:25.562Z,25.00
2019-05-10T21:31:56.142Z,24.90
2019-05-10T21:34:26.357Z,27.23
2019-05-10T21:36:56.552Z,25.30
2019-05-10T21:39:27.010Z,26.07
2019-05-10T21:41:57.872Z,30.17
2019-05-10T21:44:28.054Z,24.90
2019-05-10T21:46:58.278Z,26.87
2019-05-10T21:49:28.700Z,29.93
2019-05-10T21:51:58.854Z,26.40
2019-05-10T21:54:29.102Z,29.00
2019-05-10T21:56:59.389Z,33.03
2019-05-10T21:59:29.642Z,27.53
2019-05-10T22:01:59.979Z,27.47
2019-05-10T22:04:31.208Z,29.60
2019-05-10T22:07:01.572Z,29.40
2019-05-10T22:09:33.130Z,29.23
2019-05-10T22:12:03.734Z,30.83
2019-05-10T22:14:33.903Z,31.43
2019-05-10T22:17:04.330Z,33.30
2019-05-10T22:19:34.530Z,30.87
2019-05-10T22:22:04.812Z,25.93
2019-05-10T22:24:35.186Z,32.53
2019-05-10T22:27:05.644Z,31.30
2019-05-10T22:29:35.852Z,32.73
2019-05-10T22:32:06.226Z,29.13
2019-05-10T22:34:36.488Z,29.07
2019-05-10T22:37:06.766Z,31.70
2019-05-10T22:39:36.950Z,28.47
2019-05-10T22:42:07.651Z,33.23
2019-05-10T22:44:38.814Z,30.87
2019-05-10T22:47:09.081Z,32.43
2019-05-10T22:49:39.671Z,34.40
2019-05-10T22:52:09.881Z,36.53
2019-05-10T22:54:40.406Z,40.07
2019-05-10T22:57:10.670Z,43.03
2019-05-10T22:59:41.179Z,38.07
2019-05-10T23:02:13.330Z,37.50
2019-05-10T23:04:43.595Z,32.63
2019-05-10T23:07:13.881Z,29.40
2019-05-10T23:09:44.112Z,30.27
2019-05-10T23:12:15.379Z,31.10
2019-05-10T23:14:45.466Z,27.67
2019-05-10T23:17:16.107Z,26.80
2019-05-10T23:19:46.260Z,23.97
2019-05-10T23:22:17.344Z,24.83
2019-05-10T23:24:47.505Z,22.63
2019-05-10T23:27:17.856Z,28.93
2019-05-10T23:29:48.721Z,23.07
2019-05-10T23:32:19.355Z,28.17
2019-05-10T23:34:49.958Z,28.67
2019-05-10T23:37:20.429Z,28.63
2019-05-10T23:39:50.936Z,24.27
2019-05-10T23:42:21.052Z,26.53
2019-05-10T23:44:51.218Z,22.97
2019-05-10T23:47:21.709Z,27.43
2019-05-10T23:49:55.321Z,24.00
2019-05-10T23:52:25.655Z,31.20
2019-05-10T23:54:55.795Z,26.53
2019-05-10T23:57:25.928Z,28.70
2019-05-10T23:59:56.180Z,25.97
